Aérodrome :
LOGIN :

S'inscrire | Disclaimer

   EN    FR    IT 

 










Légende :    VFR   VFR Marginal   IFR   IFR Intensif   IFR Très Intensif
Visi : 
Plafond : 
>= 8 km
>= 3000ft
5 à 8 km
1000 à 3000 ft
1500m à 5 km
500 à 1000 ft
800 à 1500m
200 à 500 ft
< 800m
< 200 ft
Symboles :   Orages  Brouillard  Fortes neiges  Fortes précipitations  Vent > 20 kt
SIGMETs :   Divers  Orages  Givrage  Turbulence  Onde Orograph.  Cendres Volcan.







- Altitude de l'aérodrome : 218 ft
- Code IATA : LBG
- Voir les cartes d'approche


LFPB - Paris / Le Bourget

DERNIER METAR :
  • 222000Z AUTO VRB03KT CAVOK 13/08 Q1023 NOSIG

METARs EXPIRÉS :
  • 221930Z AUTO 35002KT CAVOK 14/08 Q1023 NOSIG
  • 221900Z AUTO 35002KT CAVOK 15/08 Q1023 NOSIG
  • 221830Z AUTO 33004KT CAVOK 16/07 Q1023 NOSIG
  • 221800Z AUTO 32004KT 280V350 CAVOK 17/07 Q1022 NOSIG
  • 221730Z AUTO 31004KT 280V360 CAVOK 18/08 Q1022 NOSIG

TAF TAF LFPB
Valide du 22 à 18h jusqu'au 23 à 18h UTC


221700Z 2218/2318 30006KT CAVOK
BECMG 2300/2302 04003KT
TEMPO 2303/2308 3000 BR
PROB40
TEMPO 2304/2307 0600 BCFG SCT001
ATIS : +33 1 48 62 43 92
Pas de NOTAMs connus pour ce terrain.



MET'MAP, la Météo Aéronautique d'un coup d'oeil ! - Copyright ORBIFLY Décembre 2007 - Disclaimer

ORBIFLY MET'MAP TEAM :

Programmation & Développement : Alexandra Zaïnal
Conception & Développement : Baudouin d'Aumeries
Co-Programmation & Développement : Marc-Olivier Méhu
Soutien technique & logistique : Manuel Goepfert

Contact : metmap@orbifly.com




SOURCES & CREDITS :

   NOAA